Salona, Pennsylvania
Current Conditions -  °F | °C
As of 5:53 AM on Saturday 20 Dec 2014 (Local Time) from KUNV Reporting Station
Overcast Overcast  
Wind Chill: 27°   Ceiling: 2100
Heat Index: 27°   Visibility: 10mi
Dew Point: 19°   Wind: 0mph
Humidity: 74%   Direction: NA
Pressure: 30.23"   Gusts: NA
Location:  41.08°N, 77.46°W
Report Text: KUNV 201053Z 00000KT 10SM OVC021 M03/M07 A3023
Loading
Personal Weather Stations






























Interactive Weather Map New forecast layout! Learn more

10-Day Weather Forecast

Advertisements
Track Severe Weather on mobile